sensor_id;sensor_type;location;lat;lon;timestamp;temperature;humidity
27559;DHT22;15002;52.028;5.670;2022-08-05T00:01:18;23.30;99.00
27559;DHT22;15002;52.028;5.670;2022-08-05T00:03:45;23.40;98.70
27559;DHT22;15002;52.028;5.670;2022-08-05T00:06:11;23.40;98.60
27559;DHT22;15002;52.028;5.670;2022-08-05T00:08:37;23.30;98.90
27559;DHT22;15002;52.028;5.670;2022-08-05T00:11:06;23.20;98.90
27559;DHT22;15002;52.028;5.670;2022-08-05T00:13:33;22.90;98.60
27559;DHT22;15002;52.028;5.670;2022-08-05T00:15:59;22.80;99.40
27559;DHT22;15002;52.028;5.670;2022-08-05T00:18:25;22.70;99.20
27559;DHT22;15002;52.028;5.670;2022-08-05T00:20:51;22.70;99.30
27559;DHT22;15002;52.028;5.670;2022-08-05T00:23:17;22.70;99.50
27559;DHT22;15002;52.028;5.670;2022-08-05T00:25:43;22.60;99.80
27559;DHT22;15002;52.028;5.670;2022-08-05T00:28:09;22.60;99.80
27559;DHT22;15002;52.028;5.670;2022-08-05T00:30:34;22.70;99.60
27559;DHT22;15002;52.028;5.670;2022-08-05T00:33:00;22.50;99.70
27559;DHT22;15002;52.028;5.670;2022-08-05T00:35:26;22.60;99.70
27559;DHT22;15002;52.028;5.670;2022-08-05T00:37:51;22.70;99.50
27559;DHT22;15002;52.028;5.670;2022-08-05T00:40:18;22.70;99.30
27559;DHT22;15002;52.028;5.670;2022-08-05T00:42:44;22.60;99.40
27559;DHT22;15002;52.028;5.670;2022-08-05T00:45:10;22.70;99.50
27559;DHT22;15002;52.028;5.670;2022-08-05T00:47:35;22.70;99.20
27559;DHT22;15002;52.028;5.670;2022-08-05T00:50:01;22.70;99.40
27559;DHT22;15002;52.028;5.670;2022-08-05T00:52:27;22.70;98.90
27559;DHT22;15002;52.028;5.670;2022-08-05T00:54:52;22.70;98.90
27559;DHT22;15002;52.028;5.670;2022-08-05T00:57:18;22.70;99.10
27559;DHT22;15002;52.028;5.670;2022-08-05T00:59:44;22.70;99.20
27559;DHT22;15002;52.028;5.670;2022-08-05T01:02:09;22.70;99.30
27559;DHT22;15002;52.028;5.670;2022-08-05T01:04:35;22.60;98.80
27559;DHT22;15002;52.028;5.670;2022-08-05T01:07:01;22.40;98.90
27559;DHT22;15002;52.028;5.670;2022-08-05T01:09:26;22.60;99.00
27559;DHT22;15002;52.028;5.670;2022-08-05T01:11:54;22.50;98.90
27559;DHT22;15002;52.028;5.670;2022-08-05T01:14:24;22.30;99.20
27559;DHT22;15002;52.028;5.670;2022-08-05T01:16:53;22.30;99.70
27559;DHT22;15002;52.028;5.670;2022-08-05T01:27:00;22.30;99.40
27559;DHT22;15002;52.028;5.670;2022-08-05T01:29:44;22.30;99.40
27559;DHT22;15002;52.028;5.670;2022-08-05T01:32:14;22.40;99.20
27559;DHT22;15002;52.028;5.670;2022-08-05T01:34:47;22.40;99.40
27559;DHT22;15002;52.028;5.670;2022-08-05T01:37:18;22.50;99.00
27559;DHT22;15002;52.028;5.670;2022-08-05T01:39:45;22.60;98.80
27559;DHT22;15002;52.028;5.670;2022-08-05T01:42:13;22.70;98.70
27559;DHT22;15002;52.028;5.670;2022-08-05T01:44:41;22.70;98.60
27559;DHT22;15002;52.028;5.670;2022-08-05T01:47:07;22.50;98.70
27559;DHT22;15002;52.028;5.670;2022-08-05T01:49:35;22.30;99.00
27559;DHT22;15002;52.028;5.670;2022-08-05T01:52:03;22.30;99.10
27559;DHT22;15002;52.028;5.670;2022-08-05T01:54:42;22.20;99.20
27559;DHT22;15002;52.028;5.670;2022-08-05T01:57:09;22.40;99.30
27559;DHT22;15002;52.028;5.670;2022-08-05T01:59:38;22.50;99.10
27559;DHT22;15002;52.028;5.670;2022-08-05T02:02:05;22.50;98.90
27559;DHT22;15002;52.028;5.670;2022-08-05T02:04:35;22.50;99.00
27559;DHT22;15002;52.028;5.670;2022-08-05T02:07:02;22.60;99.00
27559;DHT22;15002;52.028;5.670;2022-08-05T02:09:28;22.50;98.70
27559;DHT22;15002;52.028;5.670;2022-08-05T02:12:02;22.80;98.50
27559;DHT22;15002;52.028;5.670;2022-08-05T02:14:33;22.70;98.40
27559;DHT22;15002;52.028;5.670;2022-08-05T02:17:10;22.90;98.20
27559;DHT22;15002;52.028;5.670;2022-08-05T02:19:43;22.70;98.20
27559;DHT22;15002;52.028;5.670;2022-08-05T02:22:28;22.50;98.20
27559;DHT22;15002;52.028;5.670;2022-08-05T02:25:02;22.50;98.30
27559;DHT22;15002;52.028;5.670;2022-08-05T02:27:32;22.60;98.30
27559;DHT22;15002;52.028;5.670;2022-08-05T02:30:00;22.50;98.20
27559;DHT22;15002;52.028;5.670;2022-08-05T02:32:27;22.50;98.60
27559;DHT22;15002;52.028;5.670;2022-08-05T02:34:59;22.50;98.70
27559;DHT22;15002;52.028;5.670;2022-08-05T02:37:27;22.50;98.60
27559;DHT22;15002;52.028;5.670;2022-08-05T02:39:54;22.50;98.80
27559;DHT22;15002;52.028;5.670;2022-08-05T02:42:21;22.40;98.60
27559;DHT22;15002;52.028;5.670;2022-08-05T02:44:48;22.10;99.20
27559;DHT22;15002;52.028;5.670;2022-08-05T02:47:15;22.00;99.80
27559;DHT22;15002;52.028;5.670;2022-08-05T02:49:42;21.90;99.90
27559;DHT22;15002;52.028;5.670;2022-08-05T02:52:16;22.00;99.80
27559;DHT22;15002;52.028;5.670;2022-08-05T02:54:42;22.20;99.50
27559;DHT22;15002;52.028;5.670;2022-08-05T02:57:13;22.20;99.30
27559;DHT22;15002;52.028;5.670;2022-08-05T02:59:46;22.10;99.50
27559;DHT22;15002;52.028;5.670;2022-08-05T03:02:14;22.20;99.30
27559;DHT22;15002;52.028;5.670;2022-08-05T03:04:43;22.10;99.50
27559;DHT22;15002;52.028;5.670;2022-08-05T03:07:09;22.10;99.50
27559;DHT22;15002;52.028;5.670;2022-08-05T03:09:36;22.10;99.60
27559;DHT22;15002;52.028;5.670;2022-08-05T03:12:02;22.20;99.70
27559;DHT22;15002;52.028;5.670;2022-08-05T03:14:28;22.10;99.40
27559;DHT22;15002;52.028;5.670;2022-08-05T03:16:53;22.20;99.40
27559;DHT22;15002;52.028;5.670;2022-08-05T03:19:19;22.20;99.30
27559;DHT22;15002;52.028;5.670;2022-08-05T03:21:44;22.30;99.20
27559;DHT22;15002;52.028;5.670;2022-08-05T03:24:10;22.30;99.20
27559;DHT22;15002;52.028;5.670;2022-08-05T03:26:37;22.40;99.20
27559;DHT22;15002;52.028;5.670;2022-08-05T03:29:03;22.40;99.20
27559;DHT22;15002;52.028;5.670;2022-08-05T03:31:29;22.30;99.30
27559;DHT22;15002;52.028;5.670;2022-08-05T03:33:56;22.20;99.30
27559;DHT22;15002;52.028;5.670;2022-08-05T03:36:22;22.20;99.40
27559;DHT22;15002;52.028;5.670;2022-08-05T03:38:48;22.20;99.50
27559;DHT22;15002;52.028;5.670;2022-08-05T03:41:14;22.10;99.50
27559;DHT22;15002;52.028;5.670;2022-08-05T03:43:40;22.20;99.50
27559;DHT22;15002;52.028;5.670;2022-08-05T03:46:06;22.20;99.30
27559;DHT22;15002;52.028;5.670;2022-08-05T03:48:31;22.30;99.20
27559;DHT22;15002;52.028;5.670;2022-08-05T03:51:09;22.20;98.90
27559;DHT22;15002;52.028;5.670;2022-08-05T03:53:58;22.10;99.20
27559;DHT22;15002;52.028;5.670;2022-08-05T03:56:29;21.70;99.90
27559;DHT22;15002;52.028;5.670;2022-08-05T03:59:00;21.80;99.90
27559;DHT22;15002;52.028;5.670;2022-08-05T04:01:28;21.80;99.90
27559;DHT22;15002;52.028;5.670;2022-08-05T04:03:55;21.80;99.90
27559;DHT22;15002;52.028;5.670;2022-08-05T04:06:22;21.80;99.90
27559;DHT22;15002;52.028;5.670;2022-08-05T04:08:48;21.90;99.80
27559;DHT22;15002;52.028;5.670;2022-08-05T04:11:14;21.80;99.90
27559;DHT22;15002;52.028;5.670;2022-08-05T04:13:41;21.80;99.90
27559;DHT22;15002;52.028;5.670;2022-08-05T04:16:08;21.90;99.90
27559;DHT22;15002;52.028;5.670;2022-08-05T04:18:34;21.90;99.80
27559;DHT22;15002;52.028;5.670;2022-08-05T04:21:00;21.90;99.70
27559;DHT22;15002;52.028;5.670;2022-08-05T04:23:26;21.70;99.90
27559;DHT22;15002;52.028;5.670;2022-08-05T04:25:52;21.70;99.90
27559;DHT22;15002;52.028;5.670;2022-08-05T04:28:19;21.80;99.90
27559;DHT22;15002;52.028;5.670;2022-08-05T04:30:45;22.00;99.90
27559;DHT22;15002;52.028;5.670;2022-08-05T04:33:11;22.30;99.30
27559;DHT22;15002;52.028;5.670;2022-08-05T04:35:37;22.30;99.30
27559;DHT22;15002;52.028;5.670;2022-08-05T04:38:03;22.20;99.50
27559;DHT22;15002;52.028;5.670;2022-08-05T04:40:35;22.30;99.10
27559;DHT22;15002;52.028;5.670;2022-08-05T04:43:01;22.00;99.60
27559;DHT22;15002;52.028;5.670;2022-08-05T04:45:27;22.20;99.60
27559;DHT22;15002;52.028;5.670;2022-08-05T04:47:52;22.30;99.10
27559;DHT22;15002;52.028;5.670;2022-08-05T04:50:18;22.20;99.20
27559;DHT22;15002;52.028;5.670;2022-08-05T04:52:44;22.20;99.00
27559;DHT22;15002;52.028;5.670;2022-08-05T04:55:10;22.20;99.10
27559;DHT22;15002;52.028;5.670;2022-08-05T04:57:36;22.10;99.30
27559;DHT22;15002;52.028;5.670;2022-08-05T05:00:04;22.40;98.90
27559;DHT22;15002;52.028;5.670;2022-08-05T05:02:30;22.20;98.60
27559;DHT22;15002;52.028;5.670;2022-08-05T05:04:56;22.20;99.00
27559;DHT22;15002;52.028;5.670;2022-08-05T05:07:22;22.20;99.10
27559;DHT22;15002;52.028;5.670;2022-08-05T05:09:47;22.20;99.00
27559;DHT22;15002;52.028;5.670;2022-08-05T05:12:13;22.20;98.90
27559;DHT22;15002;52.028;5.670;2022-08-05T05:14:39;22.10;99.00
27559;DHT22;15002;52.028;5.670;2022-08-05T05:17:04;22.30;98.80
27559;DHT22;15002;52.028;5.670;2022-08-05T05:19:30;22.10;98.90
27559;DHT22;15002;52.028;5.670;2022-08-05T05:21:55;22.10;99.00
27559;DHT22;15002;52.028;5.670;2022-08-05T05:24:21;22.00;98.90
27559;DHT22;15002;52.028;5.670;2022-08-05T05:26:47;21.90;99.10
27559;DHT22;15002;52.028;5.670;2022-08-05T05:29:13;21.80;99.30
27559;DHT22;15002;52.028;5.670;2022-08-05T05:31:38;21.70;99.50
27559;DHT22;15002;52.028;5.670;2022-08-05T05:34:04;21.70;99.30
27559;DHT22;15002;52.028;5.670;2022-08-05T05:36:30;21.80;99.60
27559;DHT22;15002;52.028;5.670;2022-08-05T05:38:56;21.80;99.60
27559;DHT22;15002;52.028;5.670;2022-08-05T05:41:22;21.80;99.20
27559;DHT22;15002;52.028;5.670;2022-08-05T05:43:47;21.90;99.30
27559;DHT22;15002;52.028;5.670;2022-08-05T05:46:13;21.70;99.40
27559;DHT22;15002;52.028;5.670;2022-08-05T05:48:39;21.70;99.30
27559;DHT22;15002;52.028;5.670;2022-08-05T05:51:06;21.70;99.30
27559;DHT22;15002;52.028;5.670;2022-08-05T05:53:33;21.90;99.20
27559;DHT22;15002;52.028;5.670;2022-08-05T05:55:58;21.80;99.10
27559;DHT22;15002;52.028;5.670;2022-08-05T05:58:24;21.70;99.40
27559;DHT22;15002;52.028;5.670;2022-08-05T06:00:50;21.70;99.50
27559;DHT22;15002;52.028;5.670;2022-08-05T06:03:15;21.80;99.10
27559;DHT22;15002;52.028;5.670;2022-08-05T06:05:41;21.90;99.20
27559;DHT22;15002;52.028;5.670;2022-08-05T06:08:07;22.40;98.50
27559;DHT22;15002;52.028;5.670;2022-08-05T06:10:32;22.40;98.00
27559;DHT22;15002;52.028;5.670;2022-08-05T06:12:58;22.40;98.20
27559;DHT22;15002;52.028;5.670;2022-08-05T06:15:24;22.20;98.10
27559;DHT22;15002;52.028;5.670;2022-08-05T06:17:50;22.20;98.60
27559;DHT22;15002;52.028;5.670;2022-08-05T06:20:16;22.40;98.30
27559;DHT22;15002;52.028;5.670;2022-08-05T06:22:42;22.20;98.50
27559;DHT22;15002;52.028;5.670;2022-08-05T06:25:08;22.20;98.70
27559;DHT22;15002;52.028;5.670;2022-08-05T06:27:34;22.20;98.80
27559;DHT22;15002;52.028;5.670;2022-08-05T06:30:00;22.70;98.20
27559;DHT22;15002;52.028;5.670;2022-08-05T06:32:26;22.90;97.90
27559;DHT22;15002;52.028;5.670;2022-08-05T06:34:53;23.00;97.80
27559;DHT22;15002;52.028;5.670;2022-08-05T06:37:19;23.00;97.40
27559;DHT22;15002;52.028;5.670;2022-08-05T06:39:44;22.90;97.80
27559;DHT22;15002;52.028;5.670;2022-08-05T06:42:10;23.20;97.60
27559;DHT22;15002;52.028;5.670;2022-08-05T06:44:37;23.60;96.70
27559;DHT22;15002;52.028;5.670;2022-08-05T06:47:03;24.00;95.90
27559;DHT22;15002;52.028;5.670;2022-08-05T06:49:29;24.30;95.20
27559;DHT22;15002;52.028;5.670;2022-08-05T06:51:55;24.50;95.00
27559;DHT22;15002;52.028;5.670;2022-08-05T06:54:21;24.20;94.10
27559;DHT22;15002;52.028;5.670;2022-08-05T06:56:47;23.40;96.00
27559;DHT22;15002;52.028;5.670;2022-08-05T06:59:12;23.70;95.80
27559;DHT22;15002;52.028;5.670;2022-08-05T07:01:39;24.00;95.30
27559;DHT22;15002;52.028;5.670;2022-08-05T07:04:05;23.40;95.90
27559;DHT22;15002;52.028;5.670;2022-08-05T07:06:30;22.90;96.10
27559;DHT22;15002;52.028;5.670;2022-08-05T07:08:56;22.30;97.60
27559;DHT22;15002;52.028;5.670;2022-08-05T07:11:22;21.90;97.50
27559;DHT22;15002;52.028;5.670;2022-08-05T07:13:48;21.50;98.80
27559;DHT22;15002;52.028;5.670;2022-08-05T07:16:32;21.70;98.90
27559;DHT22;15002;52.028;5.670;2022-08-05T07:19:19;21.20;98.80
27559;DHT22;15002;52.028;5.670;2022-08-05T07:21:47;20.90;99.60
27559;DHT22;15002;52.028;5.670;2022-08-05T07:24:14;20.80;99.90
27559;DHT22;15002;52.028;5.670;2022-08-05T07:26:40;21.50;99.30
27559;DHT22;15002;52.028;5.670;2022-08-05T07:29:06;21.40;98.70
27559;DHT22;15002;52.028;5.670;2022-08-05T07:31:32;21.60;99.40
27559;DHT22;15002;52.028;5.670;2022-08-05T07:33:58;21.90;98.30
27559;DHT22;15002;52.028;5.670;2022-08-05T07:36:24;22.20;97.80
27559;DHT22;15002;52.028;5.670;2022-08-05T07:38:50;22.90;97.10
27559;DHT22;15002;52.028;5.670;2022-08-05T07:41:17;23.10;96.50
27559;DHT22;15002;52.028;5.670;2022-08-05T07:43:43;23.50;96.30
27559;DHT22;15002;52.028;5.670;2022-08-05T07:46:09;23.80;95.50
27559;DHT22;15002;52.028;5.670;2022-08-05T07:48:34;24.10;94.90
27559;DHT22;15002;52.028;5.670;2022-08-05T07:51:00;24.30;94.30
27559;DHT22;15002;52.028;5.670;2022-08-05T07:53:26;24.30;93.70
27559;DHT22;15002;52.028;5.670;2022-08-05T07:55:52;24.40;93.20
27559;DHT22;15002;52.028;5.670;2022-08-05T07:58:18;24.40;93.70
27559;DHT22;15002;52.028;5.670;2022-08-05T08:00:44;24.30;94.20
27559;DHT22;15002;52.028;5.670;2022-08-05T08:03:10;24.30;93.40
27559;DHT22;15002;52.028;5.670;2022-08-05T08:05:38;23.80;94.50
27559;DHT22;15002;52.028;5.670;2022-08-05T08:08:03;23.50;94.90
27559;DHT22;15002;52.028;5.670;2022-08-05T08:10:29;23.80;94.20
27559;DHT22;15002;52.028;5.670;2022-08-05T08:12:55;24.40;93.50
27559;DHT22;15002;52.028;5.670;2022-08-05T08:15:20;24.00;93.70
27559;DHT22;15002;52.028;5.670;2022-08-05T08:17:46;23.80;93.60
27559;DHT22;15002;52.028;5.670;2022-08-05T08:20:12;23.80;93.40
27559;DHT22;15002;52.028;5.670;2022-08-05T08:22:38;23.80;93.00
27559;DHT22;15002;52.028;5.670;2022-08-05T08:25:05;23.90;92.90
27559;DHT22;15002;52.028;5.670;2022-08-05T08:27:31;23.90;92.70
27559;DHT22;15002;52.028;5.670;2022-08-05T08:29:57;24.10;92.40
27559;DHT22;15002;52.028;5.670;2022-08-05T08:32:23;24.20;92.30
27559;DHT22;15002;52.028;5.670;2022-08-05T08:34:49;24.30;92.10
27559;DHT22;15002;52.028;5.670;2022-08-05T08:37:16;24.60;91.20
27559;DHT22;15002;52.028;5.670;2022-08-05T08:39:42;24.70;90.40
27559;DHT22;15002;52.028;5.670;2022-08-05T08:42:08;24.60;89.40
27559;DHT22;15002;52.028;5.670;2022-08-05T08:44:35;24.90;89.50
27559;DHT22;15002;52.028;5.670;2022-08-05T08:47:05;25.30;87.60
27559;DHT22;15002;52.028;5.670;2022-08-05T08:49:33;25.30;83.70
27559;DHT22;15002;52.028;5.670;2022-08-05T08:52:24;25.40;85.90
27559;DHT22;15002;52.028;5.670;2022-08-05T08:54:54;25.50;81.50
27559;DHT22;15002;52.028;5.670;2022-08-05T08:57:20;26.00;82.40
27559;DHT22;15002;52.028;5.670;2022-08-05T08:59:47;26.10;81.70
27559;DHT22;15002;52.028;5.670;2022-08-05T09:02:14;26.20;77.80
27559;DHT22;15002;52.028;5.670;2022-08-05T09:04:40;26.20;76.70
27559;DHT22;15002;52.028;5.670;2022-08-05T09:07:06;26.20;76.70
27559;DHT22;15002;52.028;5.670;2022-08-05T09:09:33;26.20;76.60
27559;DHT22;15002;52.028;5.670;2022-08-05T09:12:04;26.50;73.50
27559;DHT22;15002;52.028;5.670;2022-08-05T09:14:36;26.50;73.40
27559;DHT22;15002;52.028;5.670;2022-08-05T09:17:05;26.50;72.80
27559;DHT22;15002;52.028;5.670;2022-08-05T09:19:31;26.20;73.70
27559;DHT22;15002;52.028;5.670;2022-08-05T09:21:57;25.90;75.00
27559;DHT22;15002;52.028;5.670;2022-08-05T09:24:23;25.80;75.40
27559;DHT22;15002;52.028;5.670;2022-08-05T09:26:55;26.10;73.80
27559;DHT22;15002;52.028;5.670;2022-08-05T09:29:39;25.90;74.30
27559;DHT22;15002;52.028;5.670;2022-08-05T09:32:07;25.80;74.10
27559;DHT22;15002;52.028;5.670;2022-08-05T09:34:54;25.80;75.00
27559;DHT22;15002;52.028;5.670;2022-08-05T09:37:22;25.90;73.20
27559;DHT22;15002;52.028;5.670;2022-08-05T09:39:48;25.40;71.50
27559;DHT22;15002;52.028;5.670;2022-08-05T09:42:16;25.70;72.00
27559;DHT22;15002;52.028;5.670;2022-08-05T09:44:44;25.80;72.10
27559;DHT22;15002;52.028;5.670;2022-08-05T09:47:17;26.00;71.90
27559;DHT22;15002;52.028;5.670;2022-08-05T09:52:23;26.20;71.90
27559;DHT22;15002;52.028;5.670;2022-08-05T09:54:59;26.10;71.10
27559;DHT22;15002;52.028;5.670;2022-08-05T09:57:38;26.10;71.80
27559;DHT22;15002;52.028;5.670;2022-08-05T10:05:27;26.10;69.20
27559;DHT22;15002;52.028;5.670;2022-08-05T10:07:58;26.00;68.10
27559;DHT22;15002;52.028;5.670;2022-08-05T10:10:25;26.00;68.10
27559;DHT22;15002;52.028;5.670;2022-08-05T10:12:55;26.10;68.10
27559;DHT22;15002;52.028;5.670;2022-08-05T10:15:27;25.90;67.00
27559;DHT22;15002;52.028;5.670;2022-08-05T10:20:28;26.00;68.80
27559;DHT22;15002;52.028;5.670;2022-08-05T10:22:55;26.10;69.20
27559;DHT22;15002;52.028;5.670;2022-08-05T10:25:20;26.10;69.20
27559;DHT22;15002;52.028;5.670;2022-08-05T10:27:46;26.00;69.60
27559;DHT22;15002;52.028;5.670;2022-08-05T10:30:12;26.10;69.40
27559;DHT22;15002;52.028;5.670;2022-08-05T10:32:38;25.90;67.90
27559;DHT22;15002;52.028;5.670;2022-08-05T10:35:04;25.50;68.00
27559;DHT22;15002;52.028;5.670;2022-08-05T10:37:31;25.50;69.00
27559;DHT22;15002;52.028;5.670;2022-08-05T10:40:00;25.70;70.20
27559;DHT22;15002;52.028;5.670;2022-08-05T10:42:32;26.00;68.80
27559;DHT22;15002;52.028;5.670;2022-08-05T10:45:02;26.30;66.50
27559;DHT22;15002;52.028;5.670;2022-08-05T10:47:32;26.40;67.50
27559;DHT22;15002;52.028;5.670;2022-08-05T10:50:08;26.40;67.10
27559;DHT22;15002;52.028;5.670;2022-08-05T10:52:48;26.40;67.20
27559;DHT22;15002;52.028;5.670;2022-08-05T10:55:25;26.50;65.90
27559;DHT22;15002;52.028;5.670;2022-08-05T10:58:07;26.70;66.60
27559;DHT22;15002;52.028;5.670;2022-08-05T11:00:33;27.00;64.00
27559;DHT22;15002;52.028;5.670;2022-08-05T11:05:34;27.50;61.80
27559;DHT22;15002;52.028;5.670;2022-08-05T11:08:05;27.50;62.10
27559;DHT22;15002;52.028;5.670;2022-08-05T11:10:32;27.10;62.40
27559;DHT22;15002;52.028;5.670;2022-08-05T11:12:59;26.90;64.10
27559;DHT22;15002;52.028;5.670;2022-08-05T11:15:27;26.80;63.70
27559;DHT22;15002;52.028;5.670;2022-08-05T11:18:25;26.50;62.00
27559;DHT22;15002;52.028;5.670;2022-08-05T11:20:52;26.80;62.70
27559;DHT22;15002;52.028;5.670;2022-08-05T11:28:53;27.00;61.70
27559;DHT22;15002;52.028;5.670;2022-08-05T11:31:20;27.40;59.20
27559;DHT22;15002;52.028;5.670;2022-08-05T11:36:20;27.50;57.60
27559;DHT22;15002;52.028;5.670;2022-08-05T11:41:17;27.60;55.10
27559;DHT22;15002;52.028;5.670;2022-08-05T11:43:58;27.40;55.50
27559;DHT22;15002;52.028;5.670;2022-08-05T11:48:59;27.40;55.30
27559;DHT22;15002;52.028;5.670;2022-08-05T11:51:26;27.40;55.10
27559;DHT22;15002;52.028;5.670;2022-08-05T11:53:53;27.30;55.20
27559;DHT22;15002;52.028;5.670;2022-08-05T11:56:19;27.20;55.90
27559;DHT22;15002;52.028;5.670;2022-08-05T11:58:46;26.80;54.90
27559;DHT22;15002;52.028;5.670;2022-08-05T12:01:15;26.70;56.90
27559;DHT22;15002;52.028;5.670;2022-08-05T12:03:52;26.70;56.20
27559;DHT22;15002;52.028;5.670;2022-08-05T12:06:24;26.70;57.20
27559;DHT22;15002;52.028;5.670;2022-08-05T12:08:52;26.90;57.40
27559;DHT22;15002;52.028;5.670;2022-08-05T12:11:29;27.20;57.40
27559;DHT22;15002;52.028;5.670;2022-08-05T12:14:03;27.40;56.50
27559;DHT22;15002;52.028;5.670;2022-08-05T12:16:35;27.60;55.90
27559;DHT22;15002;52.028;5.670;2022-08-05T12:19:01;27.30;55.70
27559;DHT22;15002;52.028;5.670;2022-08-05T12:21:30;27.30;56.50
27559;DHT22;15002;52.028;5.670;2022-08-05T12:24:07;27.40;56.80
27559;DHT22;15002;52.028;5.670;2022-08-05T12:26:37;27.30;57.70
27559;DHT22;15002;52.028;5.670;2022-08-05T12:29:22;27.30;57.90
27559;DHT22;15002;52.028;5.670;2022-08-05T12:31:53;27.30;57.80
27559;DHT22;15002;52.028;5.670;2022-08-05T12:34:21;27.20;57.20
27559;DHT22;15002;52.028;5.670;2022-08-05T12:36:49;27.40;56.60
27559;DHT22;15002;52.028;5.670;2022-08-05T12:39:16;26.80;57.40
27559;DHT22;15002;52.028;5.670;2022-08-05T12:41:44;26.90;57.40
27559;DHT22;15002;52.028;5.670;2022-08-05T12:44:12;26.90;58.40
27559;DHT22;15002;52.028;5.670;2022-08-05T12:46:39;26.80;57.30
27559;DHT22;15002;52.028;5.670;2022-08-05T12:49:07;26.40;57.50
27559;DHT22;15002;52.028;5.670;2022-08-05T12:51:45;26.70;58.70
27559;DHT22;15002;52.028;5.670;2022-08-05T12:54:21;26.60;59.00
27559;DHT22;15002;52.028;5.670;2022-08-05T12:56:49;26.40;59.60
27559;DHT22;15002;52.028;5.670;2022-08-05T12:59:21;26.30;61.00
27559;DHT22;15002;52.028;5.670;2022-08-05T13:02:02;26.30;59.10
27559;DHT22;15002;52.028;5.670;2022-08-05T13:04:29;26.30;59.50
27559;DHT22;15002;52.028;5.670;2022-08-05T13:06:58;26.40;58.50
27559;DHT22;15002;52.028;5.670;2022-08-05T13:09:26;26.20;57.50
27559;DHT22;15002;52.028;5.670;2022-08-05T13:12:00;26.40;58.70
27559;DHT22;15002;52.028;5.670;2022-08-05T13:14:27;26.50;57.80
27559;DHT22;15002;52.028;5.670;2022-08-05T13:16:55;26.60;57.80
27559;DHT22;15002;52.028;5.670;2022-08-05T13:19:26;26.40;57.50
27559;DHT22;15002;52.028;5.670;2022-08-05T13:21:52;26.20;57.50
27559;DHT22;15002;52.028;5.670;2022-08-05T13:24:20;26.20;58.00
27559;DHT22;15002;52.028;5.670;2022-08-05T13:26:47;26.20;58.30
27559;DHT22;15002;52.028;5.670;2022-08-05T13:29:13;26.20;59.20
27559;DHT22;15002;52.028;5.670;2022-08-05T13:31:41;26.30;60.30
27559;DHT22;15002;52.028;5.670;2022-08-05T13:34:06;26.10;60.30
27559;DHT22;15002;52.028;5.670;2022-08-05T13:36:33;26.20;61.30
27559;DHT22;15002;52.028;5.670;2022-08-05T13:39:00;26.40;61.30
27559;DHT22;15002;52.028;5.670;2022-08-05T13:41:26;26.50;59.80
27559;DHT22;15002;52.028;5.670;2022-08-05T13:43:52;26.40;61.20
27559;DHT22;15002;52.028;5.670;2022-08-05T13:46:18;26.60;59.30
27559;DHT22;15002;52.028;5.670;2022-08-05T13:48:44;26.50;60.60
27559;DHT22;15002;52.028;5.670;2022-08-05T13:51:13;26.60;62.40
27559;DHT22;15002;52.028;5.670;2022-08-05T13:53:39;26.70;61.40
27559;DHT22;15002;52.028;5.670;2022-08-05T13:56:06;26.80;61.40
27559;DHT22;15002;52.028;5.670;2022-08-05T13:58:31;26.60;62.30
27559;DHT22;15002;52.028;5.670;2022-08-05T14:00:57;26.50;63.50
27559;DHT22;15002;52.028;5.670;2022-08-05T14:03:23;26.70;64.40
27559;DHT22;15002;52.028;5.670;2022-08-05T14:05:49;26.50;65.10
27559;DHT22;15002;52.028;5.670;2022-08-05T14:08:15;26.60;65.40
27559;DHT22;15002;52.028;5.670;2022-08-05T14:10:41;26.40;65.80
27559;DHT22;15002;52.028;5.670;2022-08-05T14:13:07;26.30;66.10
27559;DHT22;15002;52.028;5.670;2022-08-05T14:15:33;26.30;66.40
27559;DHT22;15002;52.028;5.670;2022-08-05T14:17:59;26.20;66.50
27559;DHT22;15002;52.028;5.670;2022-08-05T14:20:26;26.20;66.60
27559;DHT22;15002;52.028;5.670;2022-08-05T14:22:52;26.10;63.80
27559;DHT22;15002;52.028;5.670;2022-08-05T14:25:18;26.00;64.40
27559;DHT22;15002;52.028;5.670;2022-08-05T14:27:46;26.10;65.10
27559;DHT22;15002;52.028;5.670;2022-08-05T14:30:14;26.00;66.00
27559;DHT22;15002;52.028;5.670;2022-08-05T14:32:39;26.00;66.10
27559;DHT22;15002;52.028;5.670;2022-08-05T14:35:05;25.70;66.50
27559;DHT22;15002;52.028;5.670;2022-08-05T14:37:31;25.50;66.20
27559;DHT22;15002;52.028;5.670;2022-08-05T14:39:57;25.40;67.30
27559;DHT22;15002;52.028;5.670;2022-08-05T14:42:23;25.50;67.10
27559;DHT22;15002;52.028;5.670;2022-08-05T14:44:48;25.60;66.60
27559;DHT22;15002;52.028;5.670;2022-08-05T14:47:14;25.60;67.20
27559;DHT22;15002;52.028;5.670;2022-08-05T14:49:40;25.40;67.50
27559;DHT22;15002;52.028;5.670;2022-08-05T14:52:06;25.30;67.60
27559;DHT22;15002;52.028;5.670;2022-08-05T14:54:31;25.50;66.90
27559;DHT22;15002;52.028;5.670;2022-08-05T14:56:58;25.30;67.00
27559;DHT22;15002;52.028;5.670;2022-08-05T14:59:24;25.50;67.00
27559;DHT22;15002;52.028;5.670;2022-08-05T15:01:50;25.50;67.60
27559;DHT22;15002;52.028;5.670;2022-08-05T15:04:20;25.40;67.50
27559;DHT22;15002;52.028;5.670;2022-08-05T15:06:46;25.20;67.70
27559;DHT22;15002;52.028;5.670;2022-08-05T15:09:12;25.40;68.00
27559;DHT22;15002;52.028;5.670;2022-08-05T15:11:38;25.40;66.70
27559;DHT22;15002;52.028;5.670;2022-08-05T15:14:04;25.30;67.30
27559;DHT22;15002;52.028;5.670;2022-08-05T15:16:30;25.30;66.50
27559;DHT22;15002;52.028;5.670;2022-08-05T15:18:56;25.50;66.20
27559;DHT22;15002;52.028;5.670;2022-08-05T15:21:21;25.20;65.90
27559;DHT22;15002;52.028;5.670;2022-08-05T15:23:48;25.50;66.10
27559;DHT22;15002;52.028;5.670;2022-08-05T15:26:13;25.70;66.30
27559;DHT22;15002;52.028;5.670;2022-08-05T15:28:42;25.80;65.00
27559;DHT22;15002;52.028;5.670;2022-08-05T15:31:09;26.10;64.00
27559;DHT22;15002;52.028;5.670;2022-08-05T15:33:34;25.80;63.90
27559;DHT22;15002;52.028;5.670;2022-08-05T15:36:04;25.90;63.80
27559;DHT22;15002;52.028;5.670;2022-08-05T15:38:33;25.70;64.90
27559;DHT22;15002;52.028;5.670;2022-08-05T15:40:59;25.60;65.40
27559;DHT22;15002;52.028;5.670;2022-08-05T15:43:25;25.50;65.40
27559;DHT22;15002;52.028;5.670;2022-08-05T15:45:51;25.20;66.60
27559;DHT22;15002;52.028;5.670;2022-08-05T15:48:17;25.20;66.90
27559;DHT22;15002;52.028;5.670;2022-08-05T15:50:46;25.10;68.20
27559;DHT22;15002;52.028;5.670;2022-08-05T15:53:12;25.10;69.10
27559;DHT22;15002;52.028;5.670;2022-08-05T15:55:41;25.40;68.60
27559;DHT22;15002;52.028;5.670;2022-08-05T15:58:08;25.40;68.60
27559;DHT22;15002;52.028;5.670;2022-08-05T16:00:34;25.50;68.20
27559;DHT22;15002;52.028;5.670;2022-08-05T16:03:00;25.50;68.20
27559;DHT22;15002;52.028;5.670;2022-08-05T16:05:25;25.60;67.80
27559;DHT22;15002;52.028;5.670;2022-08-05T16:07:51;25.60;68.00